sensor_id;sensor_type;location;lat;lon;timestamp;pressure;altitude;pressure_sealevel;temperature;humidity
32083;BME280;18597;48.328;7.932;2023-12-28T00:01:32;99711.84;;;5.51;93.58
32083;BME280;18597;48.328;7.932;2023-12-28T00:03:59;99717.69;;;5.70;92.19
32083;BME280;18597;48.328;7.932;2023-12-28T00:06:24;99723.78;;;5.58;94.83
32083;BME280;18597;48.328;7.932;2023-12-28T00:08:50;99730.91;;;5.84;88.82
32083;BME280;18597;48.328;7.932;2023-12-28T00:11:16;99720.00;;;5.62;94.25
32083;BME280;18597;48.328;7.932;2023-12-28T00:13:42;99727.28;;;5.58;94.93
32083;BME280;18597;48.328;7.932;2023-12-28T00:16:07;99726.28;;;5.33;99.44
32083;BME280;18597;48.328;7.932;2023-12-28T00:18:33;99720.75;;;5.50;96.83
32083;BME280;18597;48.328;7.932;2023-12-28T00:20:59;99720.44;;;5.83;88.52
32083;BME280;18597;48.328;7.932;2023-12-28T00:23:25;99726.66;;;5.96;85.85
32083;BME280;18597;48.328;7.932;2023-12-28T00:25:51;99726.91;;;6.06;85.11
32083;BME280;18597;48.328;7.932;2023-12-28T00:28:17;99724.75;;;6.25;83.33
32083;BME280;18597;48.328;7.932;2023-12-28T00:30:43;99728.75;;;6.18;85.12
32083;BME280;18597;48.328;7.932;2023-12-28T00:33:09;99725.84;;;6.35;79.74
32083;BME280;18597;48.328;7.932;2023-12-28T00:35:34;99721.41;;;6.09;86.82
32083;BME280;18597;48.328;7.932;2023-12-28T00:38:00;99738.81;;;6.13;85.60
32083;BME280;18597;48.328;7.932;2023-12-28T00:40:26;99725.66;;;6.51;76.79
32083;BME280;18597;48.328;7.932;2023-12-28T00:42:52;99723.69;;;7.06;70.25
32083;BME280;18597;48.328;7.932;2023-12-28T00:45:17;99724.09;;;7.25;67.71
32083;BME280;18597;48.328;7.932;2023-12-28T00:47:43;99724.28;;;7.47;64.80
32083;BME280;18597;48.328;7.932;2023-12-28T00:50:09;99731.91;;;7.65;62.25
32083;BME280;18597;48.328;7.932;2023-12-28T00:52:41;99743.22;;;7.43;65.34
32083;BME280;18597;48.328;7.932;2023-12-28T00:55:07;99751.75;;;7.35;63.89
32083;BME280;18597;48.328;7.932;2023-12-28T00:57:33;99746.63;;;7.45;61.52
32083;BME280;18597;48.328;7.932;2023-12-28T01:00:00;99744.41;;;7.26;63.78
32083;BME280;18597;48.328;7.932;2023-12-28T01:02:26;99756.50;;;6.92;70.28
32083;BME280;18597;48.328;7.932;2023-12-28T01:04:51;99750.88;;;6.31;80.37
32083;BME280;18597;48.328;7.932;2023-12-28T01:07:17;99749.16;;;5.89;86.24
32083;BME280;18597;48.328;7.932;2023-12-28T01:09:43;99758.63;;;6.07;81.83
32083;BME280;18597;48.328;7.932;2023-12-28T01:12:09;99748.56;;;5.71;86.62
32083;BME280;18597;48.328;7.932;2023-12-28T01:14:34;99760.72;;;5.33;94.79
32083;BME280;18597;48.328;7.932;2023-12-28T01:17:01;99769.28;;;4.93;100.00
32083;BME280;18597;48.328;7.932;2023-12-28T01:19:26;99778.47;;;4.58;100.00
32083;BME280;18597;48.328;7.932;2023-12-28T01:21:52;99780.66;;;4.35;100.00
32083;BME280;18597;48.328;7.932;2023-12-28T01:24:18;99779.56;;;4.08;100.00
32083;BME280;18597;48.328;7.932;2023-12-28T01:26:44;99779.75;;;3.89;100.00
32083;BME280;18597;48.328;7.932;2023-12-28T01:29:10;99795.09;;;3.82;100.00
32083;BME280;18597;48.328;7.932;2023-12-28T01:31:36;99799.28;;;3.71;100.00
32083;BME280;18597;48.328;7.932;2023-12-28T01:34:03;99795.75;;;3.54;100.00
32083;BME280;18597;48.328;7.932;2023-12-28T01:36:29;99795.56;;;3.42;100.00
32083;BME280;18597;48.328;7.932;2023-12-28T01:38:55;99802.13;;;3.34;100.00
32083;BME280;18597;48.328;7.932;2023-12-28T01:41:21;99810.28;;;3.30;100.00
32083;BME280;18597;48.328;7.932;2023-12-28T01:43:47;99813.63;;;3.33;100.00
32083;BME280;18597;48.328;7.932;2023-12-28T01:46:17;99804.50;;;3.39;100.00
32083;BME280;18597;48.328;7.932;2023-12-28T01:48:46;99809.69;;;4.05;100.00
32083;BME280;18597;48.328;7.932;2023-12-28T01:51:13;99812.56;;;3.85;100.00
32083;BME280;18597;48.328;7.932;2023-12-28T01:53:41;99812.75;;;4.13;100.00
32083;BME280;18597;48.328;7.932;2023-12-28T01:56:07;99818.25;;;4.56;100.00
32083;BME280;18597;48.328;7.932;2023-12-28T01:58:34;99826.19;;;5.31;96.79
32083;BME280;18597;48.328;7.932;2023-12-28T02:01:01;99814.50;;;6.04;84.17
32083;BME280;18597;48.328;7.932;2023-12-28T02:03:28;99819.72;;;6.20;80.04
32083;BME280;18597;48.328;7.932;2023-12-28T02:05:55;99823.84;;;6.24;78.02
32083;BME280;18597;48.328;7.932;2023-12-28T02:08:21;99829.59;;;6.85;68.53
32083;BME280;18597;48.328;7.932;2023-12-28T02:10:47;99845.94;;;7.18;65.93
32083;BME280;18597;48.328;7.932;2023-12-28T02:13:13;99843.53;;;7.01;70.67
32083;BME280;18597;48.328;7.932;2023-12-28T02:15:39;99847.59;;;6.67;76.78
32083;BME280;18597;48.328;7.932;2023-12-28T02:18:11;99845.91;;;6.66;73.23
32083;BME280;18597;48.328;7.932;2023-12-28T02:20:39;99842.31;;;6.80;73.05
32083;BME280;18597;48.328;7.932;2023-12-28T02:23:07;99847.78;;;6.91;74.53
32083;BME280;18597;48.328;7.932;2023-12-28T02:25:33;99843.53;;;6.88;71.62
32083;BME280;18597;48.328;7.932;2023-12-28T02:27:59;99838.56;;;6.97;69.11
32083;BME280;18597;48.328;7.932;2023-12-28T02:30:25;99839.63;;;7.07;68.70
32083;BME280;18597;48.328;7.932;2023-12-28T02:33:32;99840.19;;;7.37;63.43
32083;BME280;18597;48.328;7.932;2023-12-28T02:36:05;99844.63;;;7.62;61.30
32083;BME280;18597;48.328;7.932;2023-12-28T02:38:35;99827.38;;;7.93;58.32
32083;BME280;18597;48.328;7.932;2023-12-28T02:41:03;99831.81;;;8.05;57.96
32083;BME280;18597;48.328;7.932;2023-12-28T02:43:29;99816.00;;;8.28;56.38
32083;BME280;18597;48.328;7.932;2023-12-28T02:45:55;99823.00;;;8.42;55.62
32083;BME280;18597;48.328;7.932;2023-12-28T02:48:21;99807.56;;;8.82;53.33
32083;BME280;18597;48.328;7.932;2023-12-28T02:50:46;99804.47;;;8.99;52.81
32083;BME280;18597;48.328;7.932;2023-12-28T02:53:13;99811.19;;;8.81;54.20
32083;BME280;18597;48.328;7.932;2023-12-28T02:55:39;99830.03;;;8.67;54.77
32083;BME280;18597;48.328;7.932;2023-12-28T02:58:04;99815.22;;;8.86;52.85
32083;BME280;18597;48.328;7.932;2023-12-28T03:00:31;99819.72;;;8.97;52.37
32083;BME280;18597;48.328;7.932;2023-12-28T03:02:57;99813.66;;;8.95;53.35
32083;BME280;18597;48.328;7.932;2023-12-28T03:05:23;99811.66;;;9.10;52.26
32083;BME280;18597;48.328;7.932;2023-12-28T03:07:49;99804.38;;;9.12;52.61
32083;BME280;18597;48.328;7.932;2023-12-28T03:10:15;99816.66;;;9.14;51.79
32083;BME280;18597;48.328;7.932;2023-12-28T03:12:41;99814.22;;;9.23;51.34
32083;BME280;18597;48.328;7.932;2023-12-28T03:15:07;99816.19;;;9.32;50.92
32083;BME280;18597;48.328;7.932;2023-12-28T03:17:33;99810.72;;;9.33;51.35
32083;BME280;18597;48.328;7.932;2023-12-28T03:20:00;99823.84;;;9.48;50.07
32083;BME280;18597;48.328;7.932;2023-12-28T03:22:27;99815.75;;;9.60;49.59
32083;BME280;18597;48.328;7.932;2023-12-28T03:24:52;99814.28;;;9.79;49.53
32083;BME280;18597;48.328;7.932;2023-12-28T03:27:18;99817.66;;;9.81;49.78
32083;BME280;18597;48.328;7.932;2023-12-28T03:29:44;99820.09;;;9.95;48.29
32083;BME280;18597;48.328;7.932;2023-12-28T03:32:10;99818.13;;;10.08;48.00
32083;BME280;18597;48.328;7.932;2023-12-28T03:34:36;99816.44;;;10.30;47.65
32083;BME280;18597;48.328;7.932;2023-12-28T03:37:02;99822.00;;;10.38;46.70
32083;BME280;18597;48.328;7.932;2023-12-28T03:39:28;99824.19;;;10.44;47.30
32083;BME280;18597;48.328;7.932;2023-12-28T03:41:54;99809.00;;;10.33;47.83
32083;BME280;18597;48.328;7.932;2023-12-28T03:44:21;99815.41;;;10.42;46.85
32083;BME280;18597;48.328;7.932;2023-12-28T03:46:49;99816.50;;;10.50;46.55
32083;BME280;18597;48.328;7.932;2023-12-28T03:49:20;99814.13;;;10.68;46.69
32083;BME280;18597;48.328;7.932;2023-12-28T03:51:48;99817.50;;;10.70;46.21
32083;BME280;18597;48.328;7.932;2023-12-28T03:54:19;99808.78;;;10.68;47.00
32083;BME280;18597;48.328;7.932;2023-12-28T03:56:46;99804.88;;;10.72;47.36
32083;BME280;18597;48.328;7.932;2023-12-28T03:59:12;99802.72;;;10.66;47.19
32083;BME280;18597;48.328;7.932;2023-12-28T04:01:38;99796.97;;;10.71;47.48
32083;BME280;18597;48.328;7.932;2023-12-28T04:04:05;99797.47;;;10.76;46.67
32083;BME280;18597;48.328;7.932;2023-12-28T04:06:30;99802.94;;;10.74;46.39
32083;BME280;18597;48.328;7.932;2023-12-28T04:08:56;99787.66;;;10.65;47.55
32083;BME280;18597;48.328;7.932;2023-12-28T04:11:22;99776.59;;;10.70;47.42
32083;BME280;18597;48.328;7.932;2023-12-28T04:13:48;99778.28;;;10.71;46.44
32083;BME280;18597;48.328;7.932;2023-12-28T04:16:15;99773.66;;;10.73;47.19
32083;BME280;18597;48.328;7.932;2023-12-28T04:18:42;99759.34;;;10.74;47.90
32083;BME280;18597;48.328;7.932;2023-12-28T04:21:09;99752.88;;;10.76;47.31
32083;BME280;18597;48.328;7.932;2023-12-28T04:23:37;99749.22;;;10.77;46.96
32083;BME280;18597;48.328;7.932;2023-12-28T04:26:03;99768.91;;;10.76;47.52
32083;BME280;18597;48.328;7.932;2023-12-28T04:28:29;99777.63;;;10.78;47.48
32083;BME280;18597;48.328;7.932;2023-12-28T04:30:55;99783.25;;;10.75;47.33
32083;BME280;18597;48.328;7.932;2023-12-28T04:33:21;99782.34;;;10.86;46.67
32083;BME280;18597;48.328;7.932;2023-12-28T04:35:47;99792.50;;;10.92;46.91
32083;BME280;18597;48.328;7.932;2023-12-28T04:38:13;99799.22;;;10.87;48.09
32083;BME280;18597;48.328;7.932;2023-12-28T04:40:39;99783.03;;;10.88;47.38
32083;BME280;18597;48.328;7.932;2023-12-28T04:43:05;99782.06;;;11.10;46.50
32083;BME280;18597;48.328;7.932;2023-12-28T04:45:30;99778.97;;;11.05;47.28
32083;BME280;18597;48.328;7.932;2023-12-28T04:47:56;99794.16;;;11.04;47.22
32083;BME280;18597;48.328;7.932;2023-12-28T04:50:22;99787.69;;;11.07;47.34
32083;BME280;18597;48.328;7.932;2023-12-28T04:52:48;99790.22;;;11.08;47.67
32083;BME280;18597;48.328;7.932;2023-12-28T04:55:14;99801.25;;;11.15;46.88
32083;BME280;18597;48.328;7.932;2023-12-28T04:57:41;99809.47;;;11.02;47.76
32083;BME280;18597;48.328;7.932;2023-12-28T05:00:08;99816.31;;;10.95;47.80
32083;BME280;18597;48.328;7.932;2023-12-28T05:02:34;99811.28;;;11.02;48.30
32083;BME280;18597;48.328;7.932;2023-12-28T05:05:00;99823.69;;;11.03;48.42
32083;BME280;18597;48.328;7.932;2023-12-28T05:07:26;99813.31;;;10.89;48.96
32083;BME280;18597;48.328;7.932;2023-12-28T05:09:52;99814.53;;;10.84;49.25
32083;BME280;18597;48.328;7.932;2023-12-28T05:12:18;99803.06;;;10.94;49.72
32083;BME280;18597;48.328;7.932;2023-12-28T05:14:43;99799.25;;;11.07;48.59
32083;BME280;18597;48.328;7.932;2023-12-28T05:17:09;99803.22;;;11.13;48.50
32083;BME280;18597;48.328;7.932;2023-12-28T05:19:35;99801.88;;;11.19;47.70
32083;BME280;18597;48.328;7.932;2023-12-28T05:22:01;99801.06;;;11.28;47.70
32083;BME280;18597;48.328;7.932;2023-12-28T05:24:29;99790.38;;;11.28;47.48
32083;BME280;18597;48.328;7.932;2023-12-28T05:26:55;99792.72;;;11.21;47.23
32083;BME280;18597;48.328;7.932;2023-12-28T05:29:21;99790.56;;;11.15;47.65
32083;BME280;18597;48.328;7.932;2023-12-28T05:31:47;99794.41;;;11.22;48.47
32083;BME280;18597;48.328;7.932;2023-12-28T05:34:13;99809.47;;;11.23;47.59
32083;BME280;18597;48.328;7.932;2023-12-28T05:36:39;99802.63;;;11.30;47.14
32083;BME280;18597;48.328;7.932;2023-12-28T05:39:07;99801.06;;;11.28;47.72
32083;BME280;18597;48.328;7.932;2023-12-28T05:41:35;99802.91;;;11.27;47.73
32083;BME280;18597;48.328;7.932;2023-12-28T05:44:01;99806.28;;;11.29;47.89
32083;BME280;18597;48.328;7.932;2023-12-28T05:46:26;99804.59;;;11.28;47.43
32083;BME280;18597;48.328;7.932;2023-12-28T05:48:52;99803.28;;;11.23;47.82
32083;BME280;18597;48.328;7.932;2023-12-28T05:51:18;99811.78;;;11.28;47.74
32083;BME280;18597;48.328;7.932;2023-12-28T05:53:44;99804.16;;;11.33;47.46
32083;BME280;18597;48.328;7.932;2023-12-28T05:56:10;99805.44;;;11.29;47.82
32083;BME280;18597;48.328;7.932;2023-12-28T05:58:36;99796.44;;;11.30;47.59
32083;BME280;18597;48.328;7.932;2023-12-28T06:01:04;99806.94;;;11.43;46.96
32083;BME280;18597;48.328;7.932;2023-12-28T06:03:31;99811.69;;;11.39;47.52
32083;BME280;18597;48.328;7.932;2023-12-28T06:05:57;99810.66;;;11.30;48.05
32083;BME280;18597;48.328;7.932;2023-12-28T06:08:23;99811.69;;;11.18;49.30
32083;BME280;18597;48.328;7.932;2023-12-28T06:10:49;99800.28;;;11.16;48.34
32083;BME280;18597;48.328;7.932;2023-12-28T06:13:15;99807.25;;;11.28;47.48
32083;BME280;18597;48.328;7.932;2023-12-28T06:15:41;99803.13;;;11.24;47.58
32083;BME280;18597;48.328;7.932;2023-12-28T06:18:07;99808.94;;;11.29;47.74
32083;BME280;18597;48.328;7.932;2023-12-28T06:20:33;99809.84;;;11.39;46.62
32083;BME280;18597;48.328;7.932;2023-12-28T06:22:59;99817.97;;;11.28;48.68
32083;BME280;18597;48.328;7.932;2023-12-28T06:25:24;99806.34;;;11.18;48.02
32083;BME280;18597;48.328;7.932;2023-12-28T06:27:50;99812.16;;;11.23;47.46
32083;BME280;18597;48.328;7.932;2023-12-28T06:30:16;99812.84;;;11.25;47.93
32083;BME280;18597;48.328;7.932;2023-12-28T06:32:42;99821.88;;;11.24;48.26
32083;BME280;18597;48.328;7.932;2023-12-28T06:35:08;99816.69;;;11.32;47.61
32083;BME280;18597;48.328;7.932;2023-12-28T06:37:34;99819.97;;;11.36;48.08
32083;BME280;18597;48.328;7.932;2023-12-28T06:40:00;99815.81;;;11.22;48.87
32083;BME280;18597;48.328;7.932;2023-12-28T06:42:25;99821.34;;;11.30;47.43
32083;BME280;18597;48.328;7.932;2023-12-28T06:44:51;99809.75;;;11.41;46.99
32083;BME280;18597;48.328;7.932;2023-12-28T06:47:17;99810.59;;;11.42;47.38
32083;BME280;18597;48.328;7.932;2023-12-28T06:49:43;99814.63;;;11.36;47.86
32083;BME280;18597;48.328;7.932;2023-12-28T06:52:09;99821.41;;;11.40;47.76
32083;BME280;18597;48.328;7.932;2023-12-28T06:54:35;99801.41;;;11.34;47.37
32083;BME280;18597;48.328;7.932;2023-12-28T06:57:01;99807.16;;;11.39;47.92
32083;BME280;18597;48.328;7.932;2023-12-28T06:59:26;99799.88;;;11.42;48.11
32083;BME280;18597;48.328;7.932;2023-12-28T07:01:52;99807.31;;;11.38;47.27
32083;BME280;18597;48.328;7.932;2023-12-28T07:04:18;99802.25;;;11.35;47.14
32083;BME280;18597;48.328;7.932;2023-12-28T07:06:44;99807.00;;;11.31;47.19
32083;BME280;18597;48.328;7.932;2023-12-28T07:09:09;99809.28;;;11.36;46.91
32083;BME280;18597;48.328;7.932;2023-12-28T07:11:35;99810.25;;;11.35;46.60
32083;BME280;18597;48.328;7.932;2023-12-28T07:14:01;99805.16;;;11.32;47.06
32083;BME280;18597;48.328;7.932;2023-12-28T07:16:27;99824.22;;;11.38;47.30
32083;BME280;18597;48.328;7.932;2023-12-28T07:18:53;99815.13;;;11.51;46.36
32083;BME280;18597;48.328;7.932;2023-12-28T07:21:19;99814.28;;;11.50;46.95
32083;BME280;18597;48.328;7.932;2023-12-28T07:23:45;99829.88;;;11.45;47.71
32083;BME280;18597;48.328;7.932;2023-12-28T07:26:15;99823.50;;;11.57;46.35
32083;BME280;18597;48.328;7.932;2023-12-28T07:28:41;99815.31;;;11.59;46.37
32083;BME280;18597;48.328;7.932;2023-12-28T07:31:09;99823.59;;;11.56;46.88
32083;BME280;18597;48.328;7.932;2023-12-28T07:33:35;99820.03;;;11.46;47.39
32083;BME280;18597;48.328;7.932;2023-12-28T07:36:00;99823.88;;;11.53;46.88
32083;BME280;18597;48.328;7.932;2023-12-28T07:38:28;99823.41;;;11.48;46.94
32083;BME280;18597;48.328;7.932;2023-12-28T07:40:54;99834.13;;;11.48;47.36
32083;BME280;18597;48.328;7.932;2023-12-28T07:43:20;99837.78;;;11.47;48.11
32083;BME280;18597;48.328;7.932;2023-12-28T07:45:45;99845.47;;;11.61;46.55
32083;BME280;18597;48.328;7.932;2023-12-28T07:48:11;99846.44;;;11.60;47.54
32083;BME280;18597;48.328;7.932;2023-12-28T07:50:37;99856.63;;;11.45;48.24
32083;BME280;18597;48.328;7.932;2023-12-28T07:53:03;99843.59;;;11.31;48.94
32083;BME280;18597;48.328;7.932;2023-12-28T07:55:29;99859.78;;;11.29;49.56
32083;BME280;18597;48.328;7.932;2023-12-28T07:57:55;99857.81;;;11.31;49.89
32083;BME280;18597;48.328;7.932;2023-12-28T08:00:20;99862.97;;;11.23;49.79
32083;BME280;18597;48.328;7.932;2023-12-28T08:02:46;99867.97;;;11.17;51.87
32083;BME280;18597;48.328;7.932;2023-12-28T08:05:12;99860.16;;;11.04;54.31
32083;BME280;18597;48.328;7.932;2023-12-28T08:07:38;99859.69;;;10.99;55.44
32083;BME280;18597;48.328;7.932;2023-12-28T08:10:04;99867.44;;;11.02;53.44
32083;BME280;18597;48.328;7.932;2023-12-28T08:12:31;99875.84;;;11.18;56.11
32083;BME280;18597;48.328;7.932;2023-12-28T08:14:57;99870.09;;;11.02;59.10
32083;BME280;18597;48.328;7.932;2023-12-28T08:17:23;99880.84;;;10.91;61.90
32083;BME280;18597;48.328;7.932;2023-12-28T08:19:49;99875.81;;;10.76;64.90
32083;BME280;18597;48.328;7.932;2023-12-28T08:22:15;99875.94;;;10.75;67.70
32083;BME280;18597;48.328;7.932;2023-12-28T08:24:40;99876.44;;;10.69;69.48
32083;BME280;18597;48.328;7.932;2023-12-28T08:27:06;99874.81;;;10.77;64.89
32083;BME280;18597;48.328;7.932;2023-12-28T08:29:32;99886.75;;;10.73;62.06
32083;BME280;18597;48.328;7.932;2023-12-28T08:31:58;99890.66;;;11.01;55.63
32083;BME280;18597;48.328;7.932;2023-12-28T08:34:24;99891.31;;;11.15;54.14
32083;BME280;18597;48.328;7.932;2023-12-28T08:36:51;99891.41;;;11.24;54.01
32083;BME280;18597;48.328;7.932;2023-12-28T08:39:17;99891.41;;;11.24;54.49
32083;BME280;18597;48.328;7.932;2023-12-28T08:41:43;99898.19;;;11.28;54.06
32083;BME280;18597;48.328;7.932;2023-12-28T08:44:09;99900.47;;;11.33;54.70
32083;BME280;18597;48.328;7.932;2023-12-28T08:46:35;99898.59;;;11.45;53.86
32083;BME280;18597;48.328;7.932;2023-12-28T08:49:01;99899.94;;;11.39;55.30
32083;BME280;18597;48.328;7.932;2023-12-28T08:51:27;99903.81;;;11.46;55.32
32083;BME280;18597;48.328;7.932;2023-12-28T08:53:53;99916.59;;;11.43;55.64
32083;BME280;18597;48.328;7.932;2023-12-28T08:56:21;99912.78;;;11.56;55.11
32083;BME280;18597;48.328;7.932;2023-12-28T08:58:48;99911.91;;;11.56;56.56
32083;BME280;18597;48.328;7.932;2023-12-28T09:01:23;99909.28;;;11.45;57.67
32083;BME280;18597;48.328;7.932;2023-12-28T09:03:50;99921.97;;;11.43;58.56
32083;BME280;18597;48.328;7.932;2023-12-28T09:06:16;99912.75;;;11.35;59.19
32083;BME280;18597;48.328;7.932;2023-12-28T09:08:43;99913.28;;;11.50;57.66
32083;BME280;18597;48.328;7.932;2023-12-28T09:11:11;99918.03;;;11.47;59.30
32083;BME280;18597;48.328;7.932;2023-12-28T09:13:38;99914.13;;;11.51;59.08
32083;BME280;18597;48.328;7.932;2023-12-28T09:16:05;99913.63;;;11.57;59.07
32083;BME280;18597;48.328;7.932;2023-12-28T09:18:31;99920.38;;;11.61;59.29
32083;BME280;18597;48.328;7.932;2023-12-28T09:20:57;99923.19;;;11.59;59.73
32083;BME280;18597;48.328;7.932;2023-12-28T09:23:22;99917.84;;;11.59;60.97
32083;BME280;18597;48.328;7.932;2023-12-28T09:25:48;99924.13;;;11.49;62.55
32083;BME280;18597;48.328;7.932;2023-12-28T09:28:15;99924.50;;;11.44;63.33
32083;BME280;18597;48.328;7.932;2023-12-28T09:30:41;99926.13;;;11.35;65.51
32083;BME280;18597;48.328;7.932;2023-12-28T09:33:07;99925.34;;;11.45;64.60
32083;BME280;18597;48.328;7.932;2023-12-28T09:35:33;99920.13;;;11.43;64.32
32083;BME280;18597;48.328;7.932;2023-12-28T09:37:59;99934.34;;;11.44;66.17
32083;BME280;18597;48.328;7.932;2023-12-28T09:40:25;99924.88;;;11.39;65.51
32083;BME280;18597;48.328;7.932;2023-12-28T09:43:18;99927.56;;;11.39;67.11
32083;BME280;18597;48.328;7.932;2023-12-28T09:45:48;99930.97;;;11.42;69.69
32083;BME280;18597;48.328;7.932;2023-12-28T09:48:17;99925.06;;;11.48;66.41
32083;BME280;18597;48.328;7.932;2023-12-28T09:50:49;99919.28;;;11.43;68.67
32083;BME280;18597;48.328;7.932;2023-12-28T09:53:16;99911.03;;;11.55;68.14
32083;BME280;18597;48.328;7.932;2023-12-28T09:55:44;99907.63;;;11.64;66.61
32083;BME280;18597;48.328;7.932;2023-12-28T09:58:13;99902.25;;;11.64;67.83
32083;BME280;18597;48.328;7.932;2023-12-28T10:00:44;99893.81;;;11.69;66.92
32083;BME280;18597;48.328;7.932;2023-12-28T10:03:13;99895.41;;;11.72;65.96
32083;BME280;18597;48.328;7.932;2023-12-28T10:05:41;99889.72;;;11.65;67.82
32083;BME280;18597;48.328;7.932;2023-12-28T10:08:08;99888.03;;;11.64;69.29
32083;BME280;18597;48.328;7.932;2023-12-28T10:10:34;99890.63;;;11.75;68.25
32083;BME280;18597;48.328;7.932;2023-12-28T10:13:00;99884.25;;;11.87;65.70
32083;BME280;18597;48.328;7.932;2023-12-28T10:15:27;99887.63;;;11.89;64.34
32083;BME280;18597;48.328;7.932;2023-12-28T10:17:53;99878.53;;;12.02;62.17
32083;BME280;18597;48.328;7.932;2023-12-28T10:20:19;99885.44;;;12.04;62.72
32083;BME280;18597;48.328;7.932;2023-12-28T10:22:45;99874.97;;;12.01;63.58
32083;BME280;18597;48.328;7.932;2023-12-28T10:25:12;99880.41;;;12.11;62.16
32083;BME280;18597;48.328;7.932;2023-12-28T10:27:39;99877.88;;;12.09;63.48
32083;BME280;18597;48.328;7.932;2023-12-28T10:30:08;99877.88;;;12.09;64.43
32083;BME280;18597;48.328;7.932;2023-12-28T10:32:39;99871.53;;;12.10;64.61
32083;BME280;18597;48.328;7.932;2023-12-28T10:35:05;99875.59;;;12.14;64.72
32083;BME280;18597;48.328;7.932;2023-12-28T10:37:32;99872.53;;;12.19;63.56
32083;BME280;18597;48.328;7.932;2023-12-28T10:40:00;99880.44;;;12.20;67.05
32083;BME280;18597;48.328;7.932;2023-12-28T10:42:33;99882.09;;;12.12;69.90
32083;BME280;18597;48.328;7.932;2023-12-28T10:45:04;99886.56;;;12.02;74.50
32083;BME280;18597;48.328;7.932;2023-12-28T10:47:33;99892.47;;;11.96;81.63
32083;BME280;18597;48.328;7.932;2023-12-28T10:50:04;99890.75;;;11.94;85.81
32083;BME280;18597;48.328;7.932;2023-12-28T10:52:32;99884.50;;;12.15;89.53
32083;BME280;18597;48.328;7.932;2023-12-28T10:55:39;99873.41;;;12.29;92.55
32083;BME280;18597;48.328;7.932;2023-12-28T10:58:47;99882.13;;;12.21;92.35
32083;BME280;18597;48.328;7.932;2023-12-28T11:01:21;99866.75;;;12.23;100.00
32083;BME280;18597;48.328;7.932;2023-12-28T11:04:00;99857.47;;;12.18;100.00
32083;BME280;18597;48.328;7.932;2023-12-28T11:06:30;99851.94;;;12.10;100.00
32083;BME280;18597;48.328;7.932;2023-12-28T11:08:58;99860.50;;;12.04;100.00
32083;BME280;18597;48.328;7.932;2023-12-28T11:11:26;99851.34;;;12.06;100.00
32083;BME280;18597;48.328;7.932;2023-12-28T11:13:54;99854.38;;;11.92;100.00
32083;BME280;18597;48.328;7.932;2023-12-28T11:16:22;99844.78;;;11.89;100.00
32083;BME280;18597;48.328;7.932;2023-12-28T11:18:49;99854.81;;;11.87;100.00
32083;BME280;18597;48.328;7.932;2023-12-28T11:21:16;99846.56;;;11.79;100.00
32083;BME280;18597;48.328;7.932;2023-12-28T11:23:43;99847.66;;;11.77;100.00
32083;BME280;18597;48.328;7.932;2023-12-28T11:26:25;99849.03;;;11.71;100.00
32083;BME280;18597;48.328;7.932;2023-12-28T11:29:02;99844.09;;;11.87;100.00
32083;BME280;18597;48.328;7.932;2023-12-28T11:31:27;99854.84;;;11.76;100.00
32083;BME280;18597;48.328;7.932;2023-12-28T11:33:53;99843.06;;;11.58;100.00
32083;BME280;18597;48.328;7.932;2023-12-28T11:36:35;99847.44;;;11.38;100.00
32083;BME280;18597;48.328;7.932;2023-12-28T11:39:03;99843.53;;;11.21;100.00
32083;BME280;18597;48.328;7.932;2023-12-28T11:41:35;99841.81;;;10.99;100.00
32083;BME280;18597;48.328;7.932;2023-12-28T11:44:05;99838.88;;;10.81;100.00
32083;BME280;18597;48.328;7.932;2023-12-28T11:46:32;99832.34;;;10.63;100.00
32083;BME280;18597;48.328;7.932;2023-12-28T11:49:13;99821.09;;;10.48;100.00
32083;BME280;18597;48.328;7.932;2023-12-28T11:51:39;99826.50;;;10.37;100.00
32083;BME280;18597;48.328;7.932;2023-12-28T11:54:06;99825.66;;;10.25;100.00
32083;BME280;18597;48.328;7.932;2023-12-28T11:56:33;99817.53;;;10.16;100.00
32083;BME280;18597;48.328;7.932;2023-12-28T11:58:59;99828.56;;;10.11;100.00
32083;BME280;18597;48.328;7.932;2023-12-28T12:01:25;99831.63;;;10.07;100.00
32083;BME280;18597;48.328;7.932;2023-12-28T12:03:51;99842.91;;;9.99;100.00
32083;BME280;18597;48.328;7.932;2023-12-28T12:06:19;99830.25;;;9.90;100.00
32083;BME280;18597;48.328;7.932;2023-12-28T12:08:46;99836.22;;;9.82;100.00
32083;BME280;18597;48.328;7.932;2023-12-28T12:11:12;99832.94;;;9.79;100.00
32083;BME280;18597;48.328;7.932;2023-12-28T12:13:38;99828.84;;;9.86;100.00
32083;BME280;18597;48.328;7.932;2023-12-28T12:16:04;99836.81;;;9.74;100.00
32083;BME280;18597;48.328;7.932;2023-12-28T12:18:32;99835.25;;;9.61;100.00
32083;BME280;18597;48.328;7.932;2023-12-28T12:20:59;99830.91;;;9.60;100.00
32083;BME280;18597;48.328;7.932;2023-12-28T12:23:25;99835.00;;;9.53;100.00
32083;BME280;18597;48.328;7.932;2023-12-28T12:25:51;99837.19;;;9.48;100.00
32083;BME280;18597;48.328;7.932;2023-12-28T12:28:17;99846.50;;;9.42;100.00
32083;BME280;18597;48.328;7.932;2023-12-28T12:30:59;99850.97;;;9.30;100.00
32083;BME280;18597;48.328;7.932;2023-12-28T12:33:28;99849.25;;;9.29;100.00
32083;BME280;18597;48.328;7.932;2023-12-28T12:35:56;99845.78;;;9.40;100.00
32083;BME280;18597;48.328;7.932;2023-12-28T12:38:21;99841.38;;;9.28;100.00
32083;BME280;18597;48.328;7.932;2023-12-28T12:41:02;99843.44;;;9.35;100.00
32083;BME280;18597;48.328;7.932;2023-12-28T12:43:28;99839.00;;;9.47;100.00
32083;BME280;18597;48.328;7.932;2023-12-28T12:45:54;99841.53;;;9.37;100.00
32083;BME280;18597;48.328;7.932;2023-12-28T12:48:20;99838.69;;;9.28;100.00
32083;BME280;18597;48.328;7.932;2023-12-28T12:50:46;99838.69;;;9.16;100.00
32083;BME280;18597;48.328;7.932;2023-12-28T12:53:12;99837.00;;;9.15;100.00
32083;BME280;18597;48.328;7.932;2023-12-28T12:55:38;99832.53;;;9.27;100.00
32083;BME280;18597;48.328;7.932;2023-12-28T12:58:05;99830.44;;;9.20;100.00
32083;BME280;18597;48.328;7.932;2023-12-28T13:00:32;99841.84;;;9.22;100.00
32083;BME280;18597;48.328;7.932;2023-12-28T13:03:00;99837.13;;;9.25;100.00